This is the latest recevied weather packets stored in our database for station/object NE1CU. If no packets are shown the sender has not sent any weather packets the latest 1 day(s).
| Time | Temp. | Humidity | Pressure | Rain* | Wind** | Luminosity | Snow |
|---|---|---|---|---|---|---|---|
| 1778041396 | 16.11° C | 73% | 1011 hPa | 0 mm | 0.45 m/s, 149° | 0 W/m² | - |
| 1778041094 | 16.11° C | 73% | 1010.8 hPa | 0 mm | 0.89 m/s, 198° | 0 W/m² | - |
| 1778040791 | 16.11° C | 73% | 1010.9 hPa | 0 mm | 0.89 m/s, 174° | 0 W/m² | - |
| 1778040489 | 16.67° C | 73% | 1011 hPa | 0 mm | 0.89 m/s, 150° | 0 W/m² | - |
| 1778040186 | 16.67° C | 73% | 1011 hPa | 0 mm | 1.34 m/s, 263° | 0 W/m² | - |
| 1778039882 | 16.67° C | 72% | 1010.9 hPa | 0 mm | 0.89 m/s, 215° | 0 W/m² | - |
| 1778039579 | 16.67° C | 72% | 1011 hPa | 0 mm | 0.89 m/s, 125° | 0 W/m² | - |
| 1778039276 | 16.67° C | 72% | 1011 hPa | 0 mm | 1.79 m/s, 232° | 0 W/m² | - |
| 1778038973 | 16.67° C | 71% | 1010.9 hPa | 0 mm | 0.89 m/s, 173° | 0 W/m² | - |
| 1778038670 | 16.67° C | 71% | 1011 hPa | 0 mm | 0.45 m/s, 152° | 0 W/m² | - |
| 1778038367 | 16.67° C | 71% | 1011 hPa | 0 mm | 0.89 m/s, 143° | 0 W/m² | - |
| 1778038064 | 16.67° C | 71% | 1010.9 hPa | 0 mm | 1.34 m/s, 174° | 0 W/m² | - |
| 1778037761 | 16.67° C | 71% | 1010.8 hPa | 0 mm | 0.45 m/s, 125° | 0 W/m² | - |
| 1778037458 | 16.11° C | 71% | 1010.8 hPa | 0 mm | 0.89 m/s, 153° | 0 W/m² | - |
| 1778037155 | 16.11° C | 71% | 1010.9 hPa | 0 mm | 0.89 m/s, 227° | 0 W/m² | - |
| 1778036853 | 16.11° C | 71% | 1011 hPa | 0 mm | 0.89 m/s, 205° | 0 W/m² | - |
| 1778036550 | 16.11° C | 71% | 1011 hPa | 0 mm | 0.45 m/s, 111° | 0 W/m² | - |
| 1778036247 | 16.11° C | 70% | 1010.9 hPa | 0 mm | 1.34 m/s, 208° | 0 W/m² | - |
| 1778035944 | 16.11° C | 70% | 1011 hPa | 0 mm | 1.34 m/s, 213° | 0 W/m² | - |
| 1778035641 | 16.11° C | 70% | 1011 hPa | 0 mm | 0.89 m/s, 188° | 0 W/m² | - |
| 1778035337 | 16.11° C | 70% | 1011 hPa | 0 mm | 1.34 m/s, 258° | 0 W/m² | - |
| 1778035033 | 16.11° C | 69% | 1011 hPa | 0 mm | 0.89 m/s, 154° | 0 W/m² | - |
| 1778034731 | 16.11° C | 69% | 1011 hPa | 0 mm | 2.24 m/s, 202° | 0 W/m² | - |
| 1778034428 | 16.67° C | 69% | 1011.2 hPa | 0 mm | 1.34 m/s, 152° | 0 W/m² | - |
| 1778034125 | 16.67° C | 68% | 1011 hPa | 0 mm | 0.45 m/s, 55° | 0 W/m² | - |
* Rain latest hour (hover to see other rain measurements)
** Current wind speed in m/s (hover to see current wind gust speed)